Fentange, Luxembourg
Current Conditions -  °F | °C
As of 11:50 AM on Friday 28 Nov 2014 (Local Time) from ELLX Reporting Station
Scattered Clouds Scattered Clouds  
Wind Chill: 40°   Ceiling: Unl
Heat Index: 45°   Visibility: 4mi
Dew Point: 41°   Wind: 9mph
Humidity: 87%   Direction: 60°ENE
Pressure: 29.74"   Gusts: NA
Location:  49.56°N, 6.15°E
Report Text: ELLX 281050Z 06008KT 040V100 6000 FEW002 SCT120 07/05 Q1007 NOSIG
Loading
Personal Weather Stations






























Interactive Weather Map New forecast layout! Learn more

10-Day Weather Forecast

Advertisements
Track Severe Weather on mobile